createdAt,value
2018-12-27T00:01:41.248Z,29.63
2018-12-27T00:04:29.162Z,30.03
2018-12-27T00:07:17.152Z,30.27
2018-12-27T00:10:05.355Z,30.73
2018-12-27T00:12:53.253Z,30.53
2018-12-27T00:15:41.137Z,32.13
2018-12-27T00:18:28.950Z,31.43
2018-12-27T00:21:16.783Z,32.80
2018-12-27T00:24:04.721Z,32.73
2018-12-27T00:26:52.606Z,31.00
2018-12-27T00:29:40.527Z,30.53
2018-12-27T00:32:28.482Z,29.60
2018-12-27T00:35:16.461Z,30.97
2018-12-27T00:38:04.327Z,31.20
2018-12-27T00:40:45.448Z,30.07
2018-12-27T00:43:26.399Z,29.87
2018-12-27T00:46:07.284Z,28.53
2018-12-27T00:48:47.859Z,30.13
2018-12-27T00:51:28.500Z,30.00
2018-12-27T00:54:08.913Z,28.67
2018-12-27T00:56:49.706Z,28.70
2018-12-27T00:59:30.472Z,29.33
2018-12-27T01:02:11.765Z,29.10
2018-12-27T01:04:52.176Z,29.30
2018-12-27T01:07:33.209Z,30.77
2018-12-27T01:10:13.772Z,30.47
2018-12-27T01:12:54.804Z,31.03
2018-12-27T01:15:35.640Z,29.27
2018-12-27T01:18:16.180Z,31.83
2018-12-27T01:20:55.115Z,30.80
2018-12-27T01:23:43.099Z,31.43
2018-12-27T01:26:31.074Z,30.93
2018-12-27T01:29:19.064Z,33.77
2018-12-27T01:32:06.946Z,30.47
2018-12-27T01:34:54.921Z,31.43
2018-12-27T01:37:42.830Z,31.13
2018-12-27T01:40:23.516Z,32.57
2018-12-27T01:43:03.923Z,32.50
2018-12-27T01:45:45.003Z,32.17
2018-12-27T01:48:13.619Z,32.17
2018-12-27T01:51:01.560Z,33.10
2018-12-27T01:53:49.539Z,32.47
2018-12-27T01:56:37.529Z,32.27
2018-12-27T01:59:25.431Z,32.47
2018-12-27T02:02:13.419Z,31.17
2018-12-27T02:05:01.329Z,31.47
2018-12-27T02:07:49.307Z,30.23
2018-12-27T02:10:37.211Z,31.53
2018-12-27T02:13:25.205Z,31.27
2018-12-27T02:16:13.173Z,29.37
2018-12-27T02:19:01.181Z,30.53
2018-12-27T02:21:49.136Z,32.17
2018-12-27T02:24:37.119Z,32.77
2018-12-27T02:27:25.098Z,31.43
2018-12-27T02:30:13.083Z,29.97
2018-12-27T02:33:01.034Z,30.80
2018-12-27T02:35:48.940Z,30.23
2018-12-27T02:38:36.825Z,28.87
2018-12-27T02:41:17.746Z,30.97
2018-12-27T02:43:58.257Z,31.37
2018-12-27T02:46:39.459Z,32.77
2018-12-27T02:49:19.901Z,30.63
2018-12-27T02:52:00.661Z,31.27
2018-12-27T02:54:41.250Z,33.60
2018-12-27T02:57:21.937Z,32.57
2018-12-27T03:00:02.399Z,31.03
2018-12-27T03:02:43.509Z,31.13
2018-12-27T03:05:24.191Z,31.13
2018-12-27T03:08:04.887Z,30.70
2018-12-27T03:10:45.377Z,30.93
2018-12-27T03:13:25.937Z,30.37
2018-12-27T03:16:06.957Z,30.97
2018-12-27T03:18:47.631Z,30.57
2018-12-27T03:21:28.355Z,29.13
2018-12-27T03:24:09.579Z,29.50
2018-12-27T03:26:50.347Z,29.00
2018-12-27T03:29:33.456Z,29.53
2018-12-27T03:32:13.997Z,30.07
2018-12-27T03:34:56.045Z,31.30
2018-12-27T03:37:36.801Z,32.17
2018-12-27T03:40:17.780Z,29.57
2018-12-27T03:42:58.943Z,31.13
2018-12-27T03:45:39.676Z,29.13
2018-12-27T03:48:20.262Z,32.83
2018-12-27T03:51:00.996Z,32.50
2018-12-27T03:53:42.207Z,32.40
2018-12-27T03:56:22.961Z,32.17
2018-12-27T03:59:03.471Z,32.07
2018-12-27T04:01:44.774Z,32.50
2018-12-27T04:04:25.879Z,31.13
2018-12-27T04:07:06.671Z,31.03
2018-12-27T04:09:47.690Z,34.13
2018-12-27T04:12:28.839Z,33.83
2018-12-27T04:15:09.367Z,32.43
2018-12-27T04:17:48.214Z,34.37
2018-12-27T04:20:36.115Z,33.13
2018-12-27T04:23:24.181Z,34.73
2018-12-27T04:26:32.703Z,33.00
2018-12-27T04:29:20.574Z,33.73
2018-12-27T04:32:08.431Z,32.17
2018-12-27T04:34:56.330Z,34.33
2018-12-27T04:37:44.122Z,34.53
2018-12-27T04:40:24.776Z,32.43
2018-12-27T04:43:05.420Z,32.40
2018-12-27T04:45:46.109Z,31.83
2018-12-27T04:48:26.811Z,30.53
2018-12-27T04:51:07.832Z,30.00
2018-12-27T04:53:48.342Z,30.27
2018-12-27T04:56:29.445Z,31.80
2018-12-27T04:59:10.092Z,32.47
2018-12-27T05:01:51.193Z,30.77
2018-12-27T05:04:31.594Z,29.93
2018-12-27T05:07:12.778Z,31.57
2018-12-27T05:09:53.737Z,30.10
2018-12-27T05:12:34.795Z,33.17
2018-12-27T05:15:15.748Z,30.80
2018-12-27T05:17:54.628Z,30.97
2018-12-27T05:20:42.515Z,30.93
2018-12-27T05:23:30.407Z,30.30
2018-12-27T05:26:18.215Z,29.03
2018-12-27T05:29:06.080Z,29.30
2018-12-27T05:31:53.951Z,30.00
2018-12-27T05:34:41.888Z,29.33
2018-12-27T05:40:38.327Z,28.83
2018-12-27T05:43:19.349Z,27.73
2018-12-27T05:46:00.555Z,28.80
2018-12-27T05:48:40.998Z,26.80
2018-12-27T05:51:21.934Z,26.13
2018-12-27T05:54:02.450Z,26.40
2018-12-27T05:56:43.152Z,27.47
2018-12-27T05:59:23.614Z,27.83
2018-12-27T06:02:04.504Z,28.30
2018-12-27T06:04:45.239Z,26.67
2018-12-27T06:07:25.782Z,28.73
2018-12-27T06:10:06.575Z,25.53
2018-12-27T06:12:47.283Z,25.90
2018-12-27T06:15:27.903Z,25.13
2018-12-27T06:18:08.795Z,25.33
2018-12-27T06:20:49.981Z,27.23
2018-12-27T06:23:30.361Z,23.47
2018-12-27T06:26:10.723Z,24.73
2018-12-27T06:28:51.414Z,25.90
2018-12-27T06:31:31.993Z,25.73
2018-12-27T06:34:13.100Z,23.97
2018-12-27T06:36:53.595Z,25.97
2018-12-27T06:39:34.301Z,25.60
2018-12-27T06:42:15.224Z,24.03
2018-12-27T06:44:55.991Z,24.07
2018-12-27T06:47:36.391Z,22.97
2018-12-27T06:50:17.897Z,24.10
2018-12-27T06:52:58.947Z,24.43
2018-12-27T06:55:39.924Z,24.87
2018-12-27T06:58:20.985Z,24.37
2018-12-27T07:01:02.163Z,24.37
2018-12-27T07:03:43.046Z,24.83
2018-12-27T07:06:23.440Z,25.50
2018-12-27T07:09:04.801Z,23.73
2018-12-27T07:11:45.778Z,24.63
2018-12-27T07:14:26.819Z,24.67
2018-12-27T07:17:07.900Z,23.70
2018-12-27T07:19:48.792Z,24.50
2018-12-27T07:22:29.182Z,24.23
2018-12-27T07:25:09.919Z,25.57
2018-12-27T07:27:50.340Z,26.00
2018-12-27T07:30:31.301Z,25.20
2018-12-27T07:33:11.823Z,25.83
2018-12-27T07:35:52.706Z,26.67
2018-12-27T07:38:33.553Z,28.97
2018-12-27T07:41:14.175Z,28.53
2018-12-27T07:43:54.856Z,27.53
2018-12-27T07:46:35.356Z,29.20
2018-12-27T07:49:16.110Z,28.83
2018-12-27T07:51:57.132Z,29.40
2018-12-27T07:54:37.590Z,28.23
2018-12-27T07:57:18.453Z,29.97
2018-12-27T07:59:58.811Z,31.80
2018-12-27T08:02:39.593Z,29.93
2018-12-27T08:05:19.983Z,30.30
2018-12-27T08:08:00.984Z,32.47
2018-12-27T08:10:41.524Z,30.93
2018-12-27T08:13:22.687Z,32.03
2018-12-27T08:16:02.379Z,32.10
2018-12-27T08:18:50.260Z,30.80
2018-12-27T08:21:38.100Z,33.60
2018-12-27T08:24:25.969Z,31.70
2018-12-27T08:27:13.886Z,32.40
2018-12-27T08:30:01.789Z,31.97
2018-12-27T08:32:49.677Z,32.63
2018-12-27T08:35:37.566Z,32.97
2018-12-27T08:38:25.403Z,34.93
2018-12-27T08:44:13.195Z,34.73
2018-12-27T08:46:53.827Z,32.73
2018-12-27T08:49:35.137Z,33.67
2018-12-27T08:52:15.955Z,34.40
2018-12-27T08:54:56.897Z,34.80
2018-12-27T08:57:40.312Z,33.70
2018-12-27T09:00:20.628Z,36.00
2018-12-27T09:03:01.775Z,36.40
2018-12-27T09:05:42.279Z,36.10
2018-12-27T09:08:23.162Z,37.63
2018-12-27T09:11:03.998Z,35.17
2018-12-27T09:13:45.239Z,37.73
2018-12-27T09:16:26.355Z,35.63
2018-12-27T09:19:07.103Z,36.43
2018-12-27T09:21:48.255Z,34.77
2018-12-27T09:24:28.687Z,37.27
2018-12-27T09:27:09.487Z,36.00
2018-12-27T09:29:50.618Z,36.80
2018-12-27T09:32:31.091Z,38.80
2018-12-27T09:35:12.060Z,34.23
2018-12-27T09:37:53.259Z,34.00
2018-12-27T09:40:34.099Z,35.47
2018-12-27T09:43:15.106Z,36.50
2018-12-27T09:45:55.578Z,36.10
2018-12-27T09:48:36.139Z,38.53
2018-12-27T09:51:17.175Z,37.97
2018-12-27T09:53:57.454Z,36.97
2018-12-27T09:56:38.600Z,37.83
2018-12-27T09:59:19.148Z,37.13
2018-12-27T10:01:59.615Z,36.00
2018-12-27T10:04:40.285Z,37.07
2018-12-27T10:07:19.107Z,37.30
2018-12-27T10:10:07.128Z,35.93
2018-12-27T10:12:55.016Z,36.35
2018-12-27T10:15:42.917Z,39.50
2018-12-27T10:18:30.813Z,38.23
2018-12-27T10:21:18.748Z,35.67
2018-12-27T10:24:06.604Z,39.23
2018-12-27T10:26:54.430Z,38.17
2018-12-27T10:29:42.273Z,38.13
2018-12-27T10:32:30.162Z,38.20
2018-12-27T10:38:24.886Z,41.67
2018-12-27T10:41:05.777Z,37.73
2018-12-27T10:43:46.707Z,39.97
2018-12-27T10:46:27.408Z,40.27
2018-12-27T10:49:08.510Z,40.87
2018-12-27T10:51:47.353Z,39.50
2018-12-27T10:54:35.290Z,42.60
2018-12-27T10:57:23.181Z,38.80
2018-12-27T11:00:31.795Z,42.30
2018-12-27T11:03:19.922Z,42.17
2018-12-27T11:06:07.845Z,40.60
2018-12-27T11:08:55.718Z,41.47
2018-12-27T11:11:43.547Z,41.47
2018-12-27T11:14:31.389Z,44.17
2018-12-27T11:17:19.284Z,42.33
2018-12-27T11:23:14.071Z,43.80
2018-12-27T11:26:01.973Z,42.37
2018-12-27T11:28:49.973Z,41.50
2018-12-27T11:31:39.447Z,42.50
2018-12-27T11:34:27.335Z,42.83
2018-12-27T11:37:15.139Z,45.03
2018-12-27T11:40:03.080Z,42.00
2018-12-27T11:42:42.919Z,44.77
2018-12-27T11:45:30.787Z,44.43
2018-12-27T11:48:18.643Z,45.23
2018-12-27T11:51:06.608Z,44.87
2018-12-27T11:53:56.057Z,46.37
2018-12-27T11:56:43.951Z,45.87
2018-12-27T11:59:31.751Z,46.37
2018-12-27T12:02:19.598Z,45.70
2018-12-27T12:05:07.461Z,47.10
2018-12-27T12:07:55.312Z,44.40
2018-12-27T12:10:55.115Z,46.83
2018-12-27T12:13:32.948Z,45.90
2018-12-27T12:16:20.779Z,45.23
2018-12-27T12:19:08.670Z,45.93
2018-12-27T12:21:56.472Z,43.53
2018-12-27T12:24:44.330Z,44.93
2018-12-27T12:27:32.198Z,47.73
2018-12-27T12:30:20.054Z,47.37
2018-12-27T12:33:00.723Z,45.27
2018-12-27T12:35:41.111Z,45.17
2018-12-27T12:38:19.998Z,45.93
2018-12-27T12:41:07.833Z,43.63
2018-12-27T12:43:55.698Z,46.40
2018-12-27T12:46:43.544Z,42.87
2018-12-27T12:49:50.545Z,46.13
2018-12-27T12:52:39.237Z,43.87
2018-12-27T12:55:27.996Z,43.47
2018-12-27T12:58:15.882Z,41.80
2018-12-27T13:01:03.731Z,43.63
2018-12-27T13:03:51.639Z,41.80
2018-12-27T13:06:39.475Z,42.23
2018-12-27T13:09:27.331Z,42.90
2018-12-27T13:12:15.193Z,42.30
2018-12-27T13:15:03.052Z,42.33
2018-12-27T13:17:50.858Z,41.17
2018-12-27T13:20:38.719Z,42.03
2018-12-27T13:23:26.629Z,42.03
2018-12-27T13:26:14.561Z,42.00
2018-12-27T13:29:02.461Z,41.17
2018-12-27T13:31:50.393Z,42.40
2018-12-27T13:34:31.103Z,45.70
2018-12-27T13:37:11.424Z,41.10
2018-12-27T13:39:52.180Z,42.93
2018-12-27T13:42:33.244Z,42.57
2018-12-27T13:45:13.508Z,42.77
2018-12-27T13:47:54.317Z,45.27
2018-12-27T13:50:35.140Z,44.43
2018-12-27T13:53:16.031Z,42.70
2018-12-27T13:55:56.398Z,41.73
2018-12-27T13:58:37.497Z,43.83
2018-12-27T14:01:18.355Z,42.73
2018-12-27T14:03:58.774Z,43.00
2018-12-27T14:06:39.055Z,43.20
2018-12-27T14:09:20.113Z,43.07
2018-12-27T14:12:00.748Z,40.97
2018-12-27T14:14:41.931Z,41.80
2018-12-27T14:17:22.969Z,42.57
2018-12-27T14:20:04.195Z,42.47
2018-12-27T14:22:45.195Z,41.57
2018-12-27T14:25:25.863Z,42.70
2018-12-27T14:28:06.336Z,39.07
2018-12-27T14:30:47.546Z,42.70
2018-12-27T14:33:28.468Z,40.10
2018-12-27T14:36:09.563Z,40.43
2018-12-27T14:38:50.302Z,39.87
2018-12-27T14:41:31.347Z,39.93
2018-12-27T14:44:12.463Z,39.97
2018-12-27T14:46:53.069Z,39.77
2018-12-27T14:49:34.186Z,37.90
2018-12-27T14:52:15.010Z,39.87
2018-12-27T14:54:56.318Z,39.63
2018-12-27T14:57:37.132Z,39.27
2018-12-27T15:00:18.746Z,40.93
2018-12-27T15:03:06.674Z,42.13
2018-12-27T15:05:54.568Z,42.30
2018-12-27T15:08:42.473Z,43.07
2018-12-27T15:11:30.841Z,41.97
2018-12-27T15:14:30.609Z,40.63
2018-12-27T15:17:08.315Z,39.97
2018-12-27T15:19:56.267Z,41.33
2018-12-27T15:22:44.146Z,41.13
2018-12-27T15:25:32.087Z,44.80
2018-12-27T15:28:19.980Z,42.10
2018-12-27T15:31:07.894Z,41.53
2018-12-27T15:33:55.796Z,42.77
2018-12-27T15:36:43.704Z,42.27
2018-12-27T15:39:32.059Z,43.20
2018-12-27T15:42:19.993Z,43.83
2018-12-27T15:45:07.909Z,44.67
2018-12-27T15:47:55.878Z,45.63
2018-12-27T15:50:43.780Z,42.83
2018-12-27T15:53:31.715Z,46.67
2018-12-27T15:56:19.594Z,44.83
2018-12-27T15:59:07.442Z,46.97
2018-12-27T16:01:55.346Z,42.87
2018-12-27T16:04:43.261Z,44.47
2018-12-27T16:07:31.084Z,46.67
2018-12-27T16:10:18.998Z,43.13
2018-12-27T16:13:06.847Z,47.53
2018-12-27T16:16:14.101Z,46.17
2018-12-27T16:19:01.996Z,44.03
2018-12-27T16:22:10.657Z,45.57
2018-12-27T16:24:58.558Z,44.90
2018-12-27T16:27:46.499Z,43.50
2018-12-27T16:30:34.408Z,43.67
2018-12-27T16:33:41.510Z,44.40
2018-12-27T16:36:21.800Z,44.53
2018-12-27T16:39:02.396Z,44.20
2018-12-27T16:41:43.054Z,43.33
2018-12-27T16:44:24.292Z,44.83
2018-12-27T16:47:05.456Z,46.17
2018-12-27T16:49:45.885Z,44.07
2018-12-27T16:52:26.219Z,45.47
2018-12-27T16:55:06.782Z,45.40
2018-12-27T16:57:47.269Z,48.70
2018-12-27T17:00:27.859Z,49.13
2018-12-27T17:03:08.294Z,46.60
2018-12-27T17:05:50.532Z,49.23
2018-12-27T17:08:31.683Z,45.00
2018-12-27T17:11:12.364Z,45.70
2018-12-27T17:13:53.485Z,48.30
2018-12-27T17:16:34.600Z,44.13
2018-12-27T17:19:15.687Z,47.73
2018-12-27T17:21:56.064Z,45.80
2018-12-27T17:24:36.983Z,47.20
2018-12-27T17:27:17.379Z,45.50
2018-12-27T17:29:58.199Z,47.30
2018-12-27T17:32:39.277Z,49.80
2018-12-27T17:35:19.695Z,47.83
2018-12-27T17:38:00.280Z,46.83
2018-12-27T17:40:40.696Z,46.30
2018-12-27T17:43:21.860Z,49.40
2018-12-27T17:46:02.716Z,48.93
2018-12-27T17:48:43.086Z,48.07
2018-12-27T17:51:24.084Z,51.10
2018-12-27T17:54:05.065Z,51.80
2018-12-27T17:56:45.527Z,47.20
2018-12-27T17:59:26.555Z,47.10
2018-12-27T18:02:07.666Z,47.80
2018-12-27T18:04:48.595Z,47.37
2018-12-27T18:07:30.727Z,48.23
2018-12-27T18:10:09.964Z,46.23
2018-12-27T18:12:57.882Z,48.50
2018-12-27T18:15:45.801Z,51.67
2018-12-27T18:18:33.707Z,49.60
2018-12-27T18:21:21.637Z,49.47
2018-12-27T18:24:09.538Z,44.67
2018-12-27T18:26:57.466Z,47.73
2018-12-27T18:29:45.364Z,48.53
2018-12-27T18:32:33.279Z,48.17
2018-12-27T18:38:49.051Z,49.73
2018-12-27T18:41:36.973Z,47.97
2018-12-27T18:44:24.889Z,46.60
2018-12-27T18:47:12.800Z,49.67
2018-12-27T18:50:00.724Z,46.93
2018-12-27T18:52:48.676Z,48.80
2018-12-27T18:55:36.577Z,50.23
2018-12-27T18:58:25.455Z,48.20
2018-12-27T19:01:13.374Z,51.77
2018-12-27T19:04:01.307Z,48.03
2018-12-27T19:06:49.224Z,52.50
2018-12-27T19:09:37.138Z,53.40
2018-12-27T19:12:56.818Z,51.00
2018-12-27T19:15:54.675Z,48.27
2018-12-27T19:18:42.613Z,48.47
2018-12-27T19:21:30.976Z,49.30
2018-12-27T19:24:18.916Z,50.33
2018-12-27T19:27:26.028Z,49.27
2018-12-27T19:30:13.949Z,48.97
2018-12-27T19:33:21.219Z,46.20
2018-12-27T19:36:28.322Z,48.87
2018-12-27T19:45:29.980Z,47.80
2018-12-27T19:48:18.229Z,49.03
2018-12-27T19:51:06.154Z,48.10
2018-12-27T19:53:54.054Z,51.27
2018-12-27T19:56:42.008Z,46.13
2018-12-27T19:59:29.912Z,49.57
2018-12-27T20:02:40.849Z,46.60
2018-12-27T20:05:07.855Z,49.43
2018-12-27T20:07:59.277Z,48.13
2018-12-27T20:10:45.334Z,46.77
2018-12-27T20:13:29.833Z,46.63
2018-12-27T20:16:10.993Z,47.93
2018-12-27T20:18:51.773Z,47.03
2018-12-27T20:21:33.223Z,49.00
2018-12-27T20:24:16.920Z,48.37
2018-12-27T20:26:58.457Z,52.45
2018-12-27T20:29:42.860Z,48.33
2018-12-27T20:32:23.796Z,49.20
2018-12-27T20:35:05.054Z,51.63
2018-12-27T20:37:47.540Z,49.87
2018-12-27T20:40:34.131Z,50.87
2018-12-27T20:43:11.009Z,48.17
2018-12-27T20:45:51.387Z,50.27
2018-12-27T20:48:32.664Z,53.53
2018-12-27T20:51:15.439Z,48.93
2018-12-27T20:53:56.545Z,52.37
2018-12-27T20:56:37.747Z,50.60
2018-12-27T20:59:19.903Z,49.20
2018-12-27T21:02:00.448Z,46.97
2018-12-27T21:04:41.303Z,49.33
2018-12-27T21:07:23.953Z,47.77
2018-12-27T21:10:04.500Z,49.40
2018-12-27T21:12:44.992Z,48.50
2018-12-27T21:15:25.415Z,50.70
2018-12-27T21:18:06.089Z,49.73
2018-12-27T21:20:47.069Z,50.17
2018-12-27T21:23:27.440Z,47.20
2018-12-27T21:26:08.555Z,49.80
2018-12-27T21:28:49.186Z,52.97
2018-12-27T21:31:29.582Z,47.47
2018-12-27T21:34:10.533Z,49.97
2018-12-27T21:36:51.174Z,49.63
2018-12-27T21:39:32.362Z,47.73
2018-12-27T21:42:13.514Z,49.40
2018-12-27T21:44:55.790Z,49.73
2018-12-27T21:47:36.825Z,49.80
2018-12-27T21:50:19.710Z,46.90
2018-12-27T21:53:00.043Z,45.97
2018-12-27T21:55:40.727Z,46.93
2018-12-27T21:58:21.349Z,46.63
2018-12-27T22:01:02.645Z,47.43
2018-12-27T22:03:43.723Z,47.60
2018-12-27T22:06:24.535Z,49.03
2018-12-27T22:09:07.461Z,50.20
2018-12-27T22:11:48.429Z,50.20
2018-12-27T22:14:28.800Z,46.73
2018-12-27T22:17:09.562Z,47.23
2018-12-27T22:19:50.289Z,45.83
2018-12-27T22:22:31.267Z,47.40
2018-12-27T22:25:11.917Z,50.33
2018-12-27T22:27:52.409Z,46.37
2018-12-27T22:30:33.130Z,50.33
2018-12-27T22:33:14.270Z,47.70
2018-12-27T22:35:55.211Z,49.47
2018-12-27T22:38:35.887Z,46.87
2018-12-27T22:41:17.092Z,48.47
2018-12-27T22:43:57.562Z,47.50
2018-12-27T22:46:38.617Z,48.53
2018-12-27T22:49:19.726Z,46.07
2018-12-27T22:52:00.751Z,48.93
2018-12-27T22:54:43.016Z,46.43
2018-12-27T22:57:23.412Z,49.97
2018-12-27T23:00:04.519Z,46.63
2018-12-27T23:02:45.650Z,48.03
2018-12-27T23:05:26.782Z,45.67
2018-12-27T23:08:07.685Z,50.07
2018-12-27T23:10:46.560Z,47.60
2018-12-27T23:13:53.682Z,49.13
2018-12-27T23:16:41.575Z,48.53
2018-12-27T23:19:29.507Z,45.33
2018-12-27T23:22:17.412Z,51.83
2018-12-27T23:25:05.349Z,50.80
2018-12-27T23:27:53.268Z,49.13
2018-12-27T23:30:41.167Z,48.40
2018-12-27T23:33:29.079Z,49.00
2018-12-27T23:36:09.847Z,46.87
2018-12-27T23:38:52.476Z,48.10
2018-12-27T23:41:33.305Z,49.03
2018-12-27T23:44:14.102Z,44.87
2018-12-27T23:46:54.777Z,49.17
2018-12-27T23:49:35.771Z,46.50
2018-12-27T23:52:16.647Z,46.30
2018-12-27T23:54:57.499Z,50.17
2018-12-27T23:57:38.095Z,45.83
